Time;durP1;ratioP1;P1;durP2;ratioP2;P2;SDS_P1;SDS_P2;PMS_P1;PMS_P2;Temp;Humidity;BMP_temperature;BMP_pressure;BME280_temperature;BME280_humidity;BME280_pressure;Samples;Min_cycle;Max_cycle;Signal;HPM_P1;HPM_P2
2023/08/21 00:02:06;;;;;;;0.30;0.30;;;;;;;;;;6305780;22;20197;-90
2023/08/21 00:04:35;;;;;;;0.40;0.40;;;;;;;;;;6306724;22;20175;-89
2023/08/21 00:07:03;;;;;;;0.30;0.30;;;;;;;;;;6306285;22;20173;-89
2023/08/21 00:09:32;;;;;;;0.30;0.30;;;;;;;;;;6306224;22;20469;-89
2023/08/21 00:12:02;;;;;;;0.50;0.50;;;;;;;;;;6305943;22;20172;-89
2023/08/21 00:14:30;;;;;;;0.47;0.47;;;;;;;;;;6306461;22;20185;-89
2023/08/21 00:16:59;;;;;;;0.30;0.30;;;;;;;;;;6306730;22;20170;-89
2023/08/21 00:19:27;;;;;;;4.63;2.33;;;;;;;;;;6305965;22;20179;-89
2023/08/21 00:21:56;;;;;;;5.83;2.80;;;;;;;;;;6306726;22;20170;-90
2023/08/21 00:24:24;;;;;;;5.70;2.90;;;;;;;;;;6306380;22;20172;-90
2023/08/21 00:26:53;;;;;;;6.20;3.10;;;;;;;;;;6306801;22;20178;-89
2023/08/21 00:29:22;;;;;;;2.30;2.07;;;;;;;;;;6306345;22;20179;-88
2023/08/21 00:31:51;;;;;;;5.13;3.03;;;;;;;;;;6306830;22;20168;-89
2023/08/21 00:34:19;;;;;;;0.73;0.73;;;;;;;;;;6306864;22;20176;-89
2023/08/21 00:36:48;;;;;;;1.90;0.77;;;;;;;;;;6306345;22;20211;-89
2023/08/21 00:39:16;;;;;;;3.20;2.20;;;;;;;;;;6307287;22;20188;-90
2023/08/21 00:41:45;;;;;;;2.07;1.87;;;;;;;;;;6306382;22;20164;-89
2023/08/21 00:44:13;;;;;;;1.97;1.77;;;;;;;;;;6306272;22;20170;-89
2023/08/21 00:46:43;;;;;;;0.60;0.60;;;;;;;;;;6306152;22;20169;-89
2023/08/21 00:49:12;;;;;;;0.40;0.40;;;;;;;;;;6306575;22;20183;-88
2023/08/21 00:51:41;;;;;;;0.93;0.93;;;;;;;;;;6306230;22;20200;-89
2023/08/21 00:54:10;;;;;;;0.40;0.40;;;;;;;;;;6305724;22;20172;-89
2023/08/21 00:56:38;;;;;;;1.43;1.43;;;;;;;;;;6305601;22;20173;-89
2023/08/21 00:59:07;;;;;;;0.40;0.40;;;;;;;;;;6306376;22;20185;-90
2023/08/21 01:01:36;;;;;;;0.40;0.40;;;;;;;;;;6306721;22;20226;-89
2023/08/21 01:04:06;;;;;;;0.30;0.30;;;;;;;;;;6305655;22;20199;-88
2023/08/21 01:06:34;;;;;;;0.30;0.30;;;;;;;;;;6306489;22;20176;-90
2023/08/21 01:09:07;;;;;;;0.40;0.40;;;;;;;;;;6306603;22;20175;-89
2023/08/21 01:11:38;;;;;;;0.70;0.70;;;;;;;;;;6306324;22;20204;-89
2023/08/21 01:14:10;;;;;;;0.30;0.30;;;;;;;;;;6305614;22;20322;-89
2023/08/21 01:16:40;;;;;;;0.30;0.30;;;;;;;;;;6306165;22;20173;-89
2023/08/21 01:19:16;;;;;;;0.30;0.30;;;;;;;;;;6306638;22;20229;-90
2023/08/21 01:21:45;;;;;;;0.37;0.37;;;;;;;;;;6306112;22;20178;-89
2023/08/21 01:24:14;;;;;;;0.30;0.30;;;;;;;;;;6304986;22;20168;-90
2023/08/21 01:26:43;;;;;;;0.30;0.30;;;;;;;;;;6306852;22;20187;-90
2023/08/21 01:29:11;;;;;;;0.30;0.30;;;;;;;;;;6305831;22;20177;-89
2023/08/21 01:31:42;;;;;;;0.30;0.30;;;;;;;;;;6305324;22;20168;-89
2023/08/21 01:34:12;;;;;;;0.30;0.30;;;;;;;;;;6305742;22;20179;-90
2023/08/21 01:36:41;;;;;;;0.30;0.30;;;;;;;;;;6305992;22;20201;-89
2023/08/21 01:39:10;;;;;;;0.30;0.30;;;;;;;;;;6305284;22;20191;-89
2023/08/21 01:41:39;;;;;;;8.13;2.10;;;;;;;;;;6305985;22;20193;-90
2023/08/21 01:44:08;;;;;;;0.30;0.30;;;;;;;;;;6306142;22;20172;-89
2023/08/21 01:46:37;;;;;;;0.40;0.40;;;;;;;;;;6306046;22;20176;-89
2023/08/21 01:49:05;;;;;;;1.03;1.03;;;;;;;;;;6305327;22;20168;-89
2023/08/21 01:51:33;;;;;;;4.33;1.00;;;;;;;;;;6306600;22;20321;-89
2023/08/21 01:54:02;;;;;;;2.13;2.00;;;;;;;;;;6305875;22;20169;-89
2023/08/21 01:56:30;;;;;;;1.37;1.27;;;;;;;;;;6305615;22;20179;-89
2023/08/21 01:59:00;;;;;;;0.90;0.90;;;;;;;;;;6305369;22;20184;-85
2023/08/21 02:01:29;;;;;;;0.30;0.30;;;;;;;;;;6305559;22;20273;-84
2023/08/21 02:03:57;;;;;;;0.50;0.50;;;;;;;;;;6305040;22;20210;-85
2023/08/21 02:06:26;;;;;;;0.30;0.30;;;;;;;;;;6304593;22;20168;-86
2023/08/21 02:08:54;;;;;;;0.30;0.30;;;;;;;;;;6305066;22;20174;-85
2023/08/21 02:11:23;;;;;;;0.30;0.30;;;;;;;;;;6305205;22;20168;-85
2023/08/21 02:13:51;;;;;;;0.93;0.93;;;;;;;;;;6305797;22;20174;-89
2023/08/21 02:16:21;;;;;;;0.40;0.40;;;;;;;;;;6305579;22;20165;-89
2023/08/21 02:18:50;;;;;;;0.40;0.40;;;;;;;;;;6305983;22;20286;-89
2023/08/21 02:21:18;;;;;;;0.30;0.30;;;;;;;;;;6305877;22;20230;-89
2023/08/21 02:23:47;;;;;;;5.63;2.10;;;;;;;;;;6305158;22;20184;-89
2023/08/21 02:26:16;;;;;;;2.30;2.10;;;;;;;;;;6305586;22;20168;-89
2023/08/21 02:28:45;;;;;;;4.00;2.70;;;;;;;;;;6305406;22;20164;-85
2023/08/21 02:31:14;;;;;;;3.40;2.00;;;;;;;;;;6305113;22;20220;-85
2023/08/21 02:33:44;;;;;;;2.77;1.90;;;;;;;;;;6304958;22;20248;-85
2023/08/21 02:36:12;;;;;;;2.17;1.77;;;;;;;;;;6307426;22;20203;-85
2023/08/21 02:38:41;;;;;;;2.20;1.97;;;;;;;;;;6306523;22;20200;-85
2023/08/21 02:41:09;;;;;;;2.93;2.63;;;;;;;;;;6306716;22;20174;-85
2023/08/21 02:43:37;;;;;;;5.43;1.00;;;;;;;;;;6306429;22;20171;-86
2023/08/21 02:46:06;;;;;;;6.40;2.40;;;;;;;;;;6307118;22;20249;-85
2023/08/21 02:48:35;;;;;;;0.77;0.77;;;;;;;;;;6306775;22;20168;-86
2023/08/21 02:51:05;;;;;;;3.27;2.50;;;;;;;;;;6305972;22;20186;-85
2023/08/21 02:53:33;;;;;;;4.63;2.47;;;;;;;;;;6307006;22;20204;-85
2023/08/21 02:56:02;;;;;;;5.23;2.60;;;;;;;;;;6306995;22;20177;-86
2023/08/21 02:58:30;;;;;;;1.53;1.43;;;;;;;;;;6306727;22;20181;-85
2023/08/21 03:00:59;;;;;;;0.50;0.50;;;;;;;;;;6306626;22;20169;-85
2023/08/21 03:03:28;;;;;;;0.30;0.30;;;;;;;;;;6307092;22;20204;-85
2023/08/21 03:05:56;;;;;;;0.40;0.40;;;;;;;;;;6306886;22;20183;-85
2023/08/21 03:08:26;;;;;;;1.50;1.40;;;;;;;;;;6305928;22;20203;-85
2023/08/21 03:10:55;;;;;;;0.50;0.50;;;;;;;;;;6306809;22;20173;-85
2023/08/21 03:13:23;;;;;;;0.40;0.40;;;;;;;;;;6307064;22;20186;-86
2023/08/21 03:15:52;;;;;;;0.40;0.40;;;;;;;;;;6306273;22;20192;-89
2023/08/21 03:18:20;;;;;;;2.47;2.47;;;;;;;;;;6307121;22;20177;-89
2023/08/21 03:20:48;;;;;;;0.40;0.40;;;;;;;;;;6307186;22;20229;-90
2023/08/21 03:23:17;;;;;;;0.30;0.30;;;;;;;;;;6307999;22;20174;-89
2023/08/21 03:25:47;;;;;;;0.40;0.40;;;;;;;;;;6305887;22;20177;-89
2023/08/21 03:28:15;;;;;;;0.40;0.40;;;;;;;;;;6307028;22;20172;-89
2023/08/21 03:30:44;;;;;;;0.63;0.60;;;;;;;;;;6306998;22;20243;-90
2023/08/21 03:33:12;;;;;;;1.07;1.07;;;;;;;;;;6306979;22;20231;-89
2023/08/21 03:35:41;;;;;;;0.73;0.73;;;;;;;;;;6306050;22;20177;-89
2023/08/21 03:38:09;;;;;;;0.80;0.80;;;;;;;;;;6306879;22;20205;-89
2023/08/21 03:40:39;;;;;;;0.60;0.60;;;;;;;;;;6306691;22;20185;-89
2023/08/21 03:43:09;;;;;;;0.40;0.40;;;;;;;;;;6306796;22;20177;-89
2023/08/21 03:45:37;;;;;;;0.40;0.40;;;;;;;;;;6306183;22;20178;-89
2023/08/21 03:48:06;;;;;;;0.40;0.40;;;;;;;;;;6307635;22;20176;-89
2023/08/21 03:50:35;;;;;;;0.40;0.40;;;;;;;;;;6307112;22;20173;-89
2023/08/21 03:53:03;;;;;;;0.30;0.30;;;;;;;;;;6306656;22;20185;-85
2023/08/21 03:55:32;;;;;;;0.33;0.33;;;;;;;;;;6306108;22;20199;-85
2023/08/21 03:58:00;;;;;;;0.60;0.60;;;;;;;;;;6306802;22;20213;-85
2023/08/21 04:00:30;;;;;;;1.03;0.93;;;;;;;;;;6305947;22;20181;-84
2023/08/21 04:02:59;;;;;;;0.40;0.40;;;;;;;;;;6306744;22;20168;-85
2023/08/21 04:05:28;;;;;;;0.40;0.40;;;;;;;;;;6306939;22;20201;-86
2023/08/21 04:07:56;;;;;;;0.40;0.40;;;;;;;;;;6307062;22;20173;-85
2023/08/21 04:10:25;;;;;;;0.50;0.50;;;;;;;;;;6306010;22;20190;-85
2023/08/21 04:12:54;;;;;;;1.70;1.63;;;;;;;;;;6306582;22;20255;-85
2023/08/21 04:15:22;;;;;;;2.37;2.17;;;;;;;;;;6306432;22;20226;-85
2023/08/21 04:17:52;;;;;;;0.70;0.70;;;;;;;;;;6306171;22;20195;-85
2023/08/21 04:20:22;;;;;;;8.07;1.00;;;;;;;;;;6305925;22;20180;-85
2023/08/21 04:22:51;;;;;;;0.50;0.50;;;;;;;;;;6306721;22;20183;-85
2023/08/21 04:25:19;;;;;;;0.70;0.70;;;;;;;;;;6306757;22;20195;-84
2023/08/21 04:27:47;;;;;;;0.67;0.67;;;;;;;;;;6306388;22;20180;-85
2023/08/21 04:30:15;;;;;;;0.57;0.57;;;;;;;;;;6306102;22;20412;-85
2023/08/21 04:32:44;;;;;;;0.40;0.40;;;;;;;;;;6306865;22;20176;-85
2023/08/21 04:35:14;;;;;;;1.20;1.20;;;;;;;;;;6306293;22;20175;-85
2023/08/21 04:37:45;;;;;;;0.40;0.40;;;;;;;;;;6305567;22;20258;-86
2023/08/21 04:40:14;;;;;;;0.70;0.70;;;;;;;;;;6306302;22;20247;-86
2023/08/21 04:42:42;;;;;;;0.40;0.40;;;;;;;;;;6306838;22;20185;-85
2023/08/21 04:45:11;;;;;;;0.40;0.40;;;;;;;;;;6306033;22;20222;-85
2023/08/21 04:47:40;;;;;;;0.40;0.40;;;;;;;;;;6305638;22;20181;-85
2023/08/21 04:50:09;;;;;;;0.50;0.50;;;;;;;;;;6306328;22;20164;-85
2023/08/21 04:52:38;;;;;;;1.27;1.23;;;;;;;;;;6305948;22;20200;-85
2023/08/21 04:55:08;;;;;;;2.20;2.10;;;;;;;;;;6305321;22;20252;-85
2023/08/21 04:57:37;;;;;;;0.90;0.90;;;;;;;;;;6305714;22;20168;-84
2023/08/21 05:00:06;;;;;;;0.97;0.97;;;;;;;;;;6306113;22;20184;-85
2023/08/21 05:02:35;;;;;;;0.40;0.40;;;;;;;;;;6306302;22;20180;-89
2023/08/21 05:05:05;;;;;;;0.50;0.50;;;;;;;;;;6307151;22;20175;-89
2023/08/21 05:07:34;;;;;;;0.60;0.60;;;;;;;;;;6306566;22;20276;-89
2023/08/21 05:10:04;;;;;;;0.40;0.40;;;;;;;;;;6308005;22;20170;-89
2023/08/21 05:12:33;;;;;;;1.77;1.67;;;;;;;;;;6306150;22;20176;-89
2023/08/21 05:15:01;;;;;;;0.53;0.53;;;;;;;;;;6307135;22;20207;-89
2023/08/21 05:17:30;;;;;;;0.67;0.67;;;;;;;;;;6307589;22;20174;-89
2023/08/21 05:19:59;;;;;;;2.20;0.93;;;;;;;;;;6306149;22;20184;-89
2023/08/21 05:22:27;;;;;;;0.40;0.40;;;;;;;;;;6306092;22;20176;-89
2023/08/21 05:24:56;;;;;;;0.40;0.40;;;;;;;;;;6306757;22;20174;-89
2023/08/21 05:27:27;;;;;;;0.40;0.40;;;;;;;;;;6307461;22;20215;-90
2023/08/21 05:29:55;;;;;;;0.40;0.40;;;;;;;;;;6305185;22;20169;-87
2023/08/21 05:32:24;;;;;;;0.40;0.40;;;;;;;;;;6305821;22;20232;-88
2023/08/21 05:34:53;;;;;;;0.40;0.40;;;;;;;;;;6307297;22;20210;-89
2023/08/21 05:37:21;;;;;;;0.40;0.40;;;;;;;;;;6306928;22;20230;-90
2023/08/21 05:39:50;;;;;;;2.80;2.67;;;;;;;;;;6307256;22;20203;-90
2023/08/21 05:42:18;;;;;;;0.60;0.60;;;;;;;;;;6308001;22;20237;-90
2023/08/21 05:44:48;;;;;;;2.20;1.80;;;;;;;;;;6307833;22;20171;-90
2023/08/21 05:47:17;;;;;;;5.33;2.27;;;;;;;;;;6306942;22;20218;-90
2023/08/21 05:49:47;;;;;;;0.50;0.50;;;;;;;;;;6306331;22;20255;-89
2023/08/21 05:52:16;;;;;;;1.70;1.33;;;;;;;;;;6306950;22;20247;-90
2023/08/21 05:54:44;;;;;;;5.27;3.90;;;;;;;;;;6307130;22;20194;-90
2023/08/21 05:57:13;;;;;;;4.43;2.30;;;;;;;;;;6305917;22;20176;-85
2023/08/21 05:59:45;;;;;;;4.77;2.87;;;;;;;;;;6305680;22;20179;-82
2023/08/21 06:02:15;;;;;;;0.63;0.63;;;;;;;;;;6305643;22;20204;-81
2023/08/21 06:04:44;;;;;;;2.03;1.83;;;;;;;;;;6304688;22;20219;-82
2023/08/21 06:07:13;;;;;;;1.60;1.50;;;;;;;;;;6305346;22;20184;-82
2023/08/21 06:09:41;;;;;;;1.60;1.50;;;;;;;;;;6306520;22;20227;-82
2023/08/21 06:12:10;;;;;;;1.93;1.57;;;;;;;;;;6306812;22;20166;-82
2023/08/21 06:14:38;;;;;;;1.40;1.30;;;;;;;;;;6306203;22;20207;-87
2023/08/21 06:17:07;;;;;;;0.60;0.60;;;;;;;;;;6307240;22;20168;-87
2023/08/21 06:19:37;;;;;;;2.30;1.80;;;;;;;;;;6307702;22;20272;-87
2023/08/21 06:22:06;;;;;;;10.07;3.23;;;;;;;;;;6307544;22;20289;-87
2023/08/21 06:24:35;;;;;;;6.53;3.00;;;;;;;;;;6307471;22;20176;-88
2023/08/21 06:27:04;;;;;;;0.50;0.50;;;;;;;;;;6307663;22;20172;-87
2023/08/21 06:29:37;;;;;;;4.20;2.67;;;;;;;;;;6307813;22;20180;-86
2023/08/21 06:32:05;;;;;;;0.73;0.73;;;;;;;;;;6307509;22;20173;-85
2023/08/21 06:34:34;;;;;;;5.53;3.40;;;;;;;;;;6307517;22;20189;-86
2023/08/21 06:37:04;;;;;;;22.47;4.40;;;;;;;;;;6307802;22;20222;-85
2023/08/21 06:39:34;;;;;;;0.77;0.77;;;;;;;;;;6308493;22;20173;-85
2023/08/21 06:42:03;;;;;;;5.83;2.93;;;;;;;;;;6307554;22;20199;-86
2023/08/21 06:44:31;;;;;;;2.87;1.13;;;;;;;;;;6307734;22;20169;-85
2023/08/21 06:47:00;;;;;;;0.60;0.60;;;;;;;;;;6307775;22;20221;-86
2023/08/21 06:49:28;;;;;;;1.47;1.13;;;;;;;;;;6307779;22;20175;-86
2023/08/21 06:51:57;;;;;;;0.30;0.30;;;;;;;;;;6308486;22;20221;-86
2023/08/21 06:54:27;;;;;;;3.80;1.43;;;;;;;;;;6307412;22;20176;-86
2023/08/21 06:56:56;;;;;;;5.07;2.40;;;;;;;;;;6308505;22;20168;-86
2023/08/21 06:59:24;;;;;;;5.50;3.03;;;;;;;;;;6308264;22;20203;-86
2023/08/21 07:01:53;;;;;;;4.90;2.83;;;;;;;;;;6307986;22;20210;-85
2023/08/21 07:04:21;;;;;;;2.23;1.60;;;;;;;;;;6307741;22;20181;-86
2023/08/21 07:06:50;;;;;;;8.90;3.27;;;;;;;;;;6308014;22;20176;-86
2023/08/21 07:09:18;;;;;;;2.10;1.80;;;;;;;;;;6307119;22;20172;-86
2023/08/21 07:11:48;;;;;;;4.30;2.33;;;;;;;;;;6308159;22;20232;-86
2023/08/21 07:14:18;;;;;;;5.60;2.80;;;;;;;;;;6307609;22;20183;-86
2023/08/21 07:16:46;;;;;;;5.40;2.10;;;;;;;;;;6307947;22;20172;-86
2023/08/21 07:19:15;;;;;;;2.73;1.57;;;;;;;;;;6307637;22;20168;-85
2023/08/21 07:21:43;;;;;;;6.70;2.37;;;;;;;;;;6307153;22;20186;-86
2023/08/21 07:24:12;;;;;;;14.17;1.53;;;;;;;;;;6307754;22;20236;-86
2023/08/21 07:26:40;;;;;;;4.20;2.20;;;;;;;;;;6307488;22;20180;-86
2023/08/21 07:29:10;;;;;;;1.43;1.33;;;;;;;;;;6307696;22;20186;-86
2023/08/21 07:31:39;;;;;;;3.13;1.33;;;;;;;;;;6309006;22;20164;-87
2023/08/21 07:34:08;;;;;;;1.27;1.17;;;;;;;;;;6306864;22;20265;-87
2023/08/21 07:36:37;;;;;;;2.33;1.73;;;;;;;;;;6308165;22;20177;-86
2023/08/21 07:39:09;;;;;;;3.63;1.87;;;;;;;;;;6276822;22;20193;-87
2023/08/21 07:41:37;;;;;;;1.23;0.97;;;;;;;;;;6276576;22;20210;-87
2023/08/21 07:44:06;;;;;;;4.23;2.63;;;;;;;;;;6275858;22;20179;-87
2023/08/21 07:46:36;;;;;;;2.63;1.80;;;;;;;;;;6276649;22;20262;-87
2023/08/21 07:49:04;;;;;;;1.37;1.03;;;;;;;;;;6276754;22;20214;-87
2023/08/21 07:51:33;;;;;;;0.30;0.30;;;;;;;;;;6275780;22;20191;-87
2023/08/21 07:54:02;;;;;;;1.57;1.20;;;;;;;;;;6276617;22;20184;-87
2023/08/21 07:56:33;;;;;;;0.67;0.67;;;;;;;;;;6276283;22;20171;-89
2023/08/21 07:59:01;;;;;;;2.10;2.00;;;;;;;;;;6276825;22;20172;-89
2023/08/21 08:01:30;;;;;;;0.90;0.90;;;;;;;;;;6276381;22;20227;-89
2023/08/21 08:04:00;;;;;;;0.40;0.40;;;;;;;;;;6277260;22;20171;-90
2023/08/21 08:06:29;;;;;;;1.60;1.50;;;;;;;;;;6276488;22;20203;-90
2023/08/21 08:08:58;;;;;;;0.97;0.70;;;;;;;;;;6276974;22;20180;-88
2023/08/21 08:11:26;;;;;;;5.27;1.07;;;;;;;;;;6276474;22;20182;-90
2023/08/21 08:13:55;;;;;;;2.53;1.27;;;;;;;;;;6277488;22;20226;-90
2023/08/21 08:16:24;;;;;;;2.50;1.27;;;;;;;;;;6276859;22;20263;-90
2023/08/21 08:18:52;;;;;;;2.73;2.53;;;;;;;;;;6275963;22;20174;-90
2023/08/21 08:21:22;;;;;;;2.50;2.30;;;;;;;;;;6276167;22;20179;-90
2023/08/21 08:23:51;;;;;;;6.27;3.00;;;;;;;;;;6277028;22;20194;-89
2023/08/21 08:26:19;;;;;;;2.37;2.27;;;;;;;;;;6276427;22;20174;-90
2023/08/21 08:28:48;;;;;;;4.03;1.97;;;;;;;;;;6276523;22;20176;-90
2023/08/21 08:31:18;;;;;;;2.83;2.63;;;;;;;;;;6276927;22;20263;-90
2023/08/21 08:33:47;;;;;;;2.00;1.23;;;;;;;;;;6278168;22;20254;-90
2023/08/21 08:36:16;;;;;;;2.30;1.37;;;;;;;;;;6275981;22;20173;-90
2023/08/21 08:38:46;;;;;;;9.20;1.80;;;;;;;;;;6302377;22;20265;-90
2023/08/21 08:41:18;;;;;;;5.80;2.90;;;;;;;;;;6307250;22;20171;-90
2023/08/21 08:43:47;;;;;;;1.37;0.80;;;;;;;;;;6307022;22;20167;-90
2023/08/21 08:46:19;;;;;;;0.93;0.67;;;;;;;;;;6307359;22;20174;-90
2023/08/21 08:48:48;;;;;;;1.60;1.07;;;;;;;;;;6308381;22;20232;-89
2023/08/21 08:51:16;;;;;;;8.57;3.47;;;;;;;;;;6307156;22;20196;-89
2023/08/21 08:53:47;;;;;;;4.53;2.23;;;;;;;;;;6306833;22;20173;-89
2023/08/21 08:56:17;;;;;;;9.77;3.13;;;;;;;;;;6306255;22;20225;-90
2023/08/21 08:58:46;;;;;;;6.53;3.13;;;;;;;;;;6307116;22;20171;-90
2023/08/21 09:01:14;;;;;;;0.40;0.40;;;;;;;;;;6307656;22;20267;-90
2023/08/21 09:03:43;;;;;;;0.70;0.70;;;;;;;;;;6307407;22;20188;-90
2023/08/21 09:06:12;;;;;;;6.20;2.17;;;;;;;;;;6307054;22;20174;-89
2023/08/21 09:08:44;;;;;;;0.20;0.20;;;;;;;;;;6307071;22;20172;-84
2023/08/21 09:11:17;;;;;;;1.67;1.33;;;;;;;;;;6305276;22;20178;-86
2023/08/21 09:13:46;;;;;;;2.73;1.50;;;;;;;;;;6305883;22;20174;-85
2023/08/21 09:16:16;;;;;;;6.73;1.57;;;;;;;;;;6306190;22;20205;-85
2023/08/21 09:18:48;;;;;;;4.07;2.37;;;;;;;;;;6305955;22;20208;-85
2023/08/21 09:21:20;;;;;;;4.37;2.60;;;;;;;;;;6308211;22;20199;-85
2023/08/21 09:23:49;;;;;;;4.33;2.43;;;;;;;;;;6313142;22;20212;-86
2023/08/21 09:26:23;;;;;;;1.60;0.63;;;;;;;;;;6312886;22;20177;-85
2023/08/21 09:28:52;;;;;;;1.60;1.50;;;;;;;;;;6306497;22;20168;-84
2023/08/21 09:31:24;;;;;;;1.30;1.30;;;;;;;;;;6305946;22;20184;-85
2023/08/21 09:34:00;;;;;;;1.20;1.10;;;;;;;;;;6305295;22;20197;-85
2023/08/21 09:36:29;;;;;;;0.40;0.40;;;;;;;;;;6305551;22;20174;-85
2023/08/21 09:38:58;;;;;;;2.07;1.23;;;;;;;;;;6305133;22;20207;-85
2023/08/21 09:41:28;;;;;;;0.40;0.40;;;;;;;;;;6306531;22;20172;-85
2023/08/21 09:44:00;;;;;;;0.80;0.80;;;;;;;;;;6305417;22;20187;-85
2023/08/21 09:46:29;;;;;;;1.23;0.87;;;;;;;;;;6305774;22;20177;-85
2023/08/21 09:48:58;;;;;;;3.27;1.63;;;;;;;;;;6305868;22;20217;-85
2023/08/21 09:51:28;;;;;;;4.53;1.80;;;;;;;;;;6306001;22;20322;-85
2023/08/21 09:53:57;;;;;;;0.37;0.37;;;;;;;;;;6305788;22;20163;-85
2023/08/21 09:56:26;;;;;;;2.37;0.93;;;;;;;;;;6305142;22;20167;-85
2023/08/21 09:58:56;;;;;;;1.13;1.07;;;;;;;;;;6305614;22;20171;-85
2023/08/21 10:01:26;;;;;;;1.00;0.83;;;;;;;;;;6306091;22;20175;-85
2023/08/21 10:03:55;;;;;;;5.50;2.00;;;;;;;;;;6305401;22;20359;-85
2023/08/21 10:06:25;;;;;;;2.90;0.70;;;;;;;;;;6305281;22;20168;-85
2023/08/21 10:08:55;;;;;;;1.77;1.73;;;;;;;;;;6306000;22;20218;-85
2023/08/21 10:11:24;;;;;;;2.80;1.47;;;;;;;;;;6305485;22;20176;-85
2023/08/21 10:13:53;;;;;;;4.07;3.10;;;;;;;;;;6305508;22;20176;-84
2023/08/21 10:16:23;;;;;;;0.50;0.50;;;;;;;;;;6305389;22;20207;-85
2023/08/21 10:18:53;;;;;;;7.17;2.27;;;;;;;;;;6306147;22;20183;-85
2023/08/21 10:21:25;;;;;;;1.10;0.87;;;;;;;;;;6305502;22;20169;-85
2023/08/21 10:23:56;;;;;;;0.37;0.37;;;;;;;;;;6305510;22;20196;-84
2023/08/21 10:26:27;;;;;;;1.30;1.10;;;;;;;;;;6305487;22;20211;-85
2023/08/21 10:29:02;;;;;;;5.17;1.97;;;;;;;;;;6305487;22;20254;-85
2023/08/21 10:31:38;;;;;;;1.93;1.20;;;;;;;;;;6305303;22;20203;-85
2023/08/21 10:34:07;;;;;;;2.57;1.33;;;;;;;;;;6305854;22;20221;-85
2023/08/21 10:36:40;;;;;;;0.77;0.77;;;;;;;;;;6305820;22;20196;-85
2023/08/21 10:39:15;;;;;;;1.10;0.90;;;;;;;;;;6305749;22;20231;-86
2023/08/21 10:41:54;;;;;;;1.40;0.57;;;;;;;;;;6305064;22;20472;-85
2023/08/21 10:44:36;;;;;;;4.70;2.03;;;;;;;;;;6305602;22;20210;-85
2023/08/21 10:47:17;;;;;;;0.77;0.50;;;;;;;;;;6306308;22;20258;-86
2023/08/21 10:49:47;;;;;;;1.80;1.27;;;;;;;;;;6304659;22;20182;-85
2023/08/21 10:52:16;;;;;;;1.53;0.77;;;;;;;;;;6305553;22;20193;-85
2023/08/21 10:54:48;;;;;;;1.90;0.90;;;;;;;;;;6305400;22;20179;-85
2023/08/21 10:57:19;;;;;;;0.63;0.63;;;;;;;;;;6306938;22;20203;-85
2023/08/21 10:59:54;;;;;;;1.00;0.60;;;;;;;;;;6306946;22;20175;-85
2023/08/21 11:02:25;;;;;;;2.30;1.30;;;;;;;;;;6307884;22;20179;-85
2023/08/21 11:04:54;;;;;;;3.10;0.80;;;;;;;;;;6307442;22;20191;-85
2023/08/21 11:07:23;;;;;;;4.37;1.50;;;;;;;;;;6306897;22;20183;-85
2023/08/21 11:09:52;;;;;;;0.50;0.50;;;;;;;;;;6307265;22;20175;-85
2023/08/21 11:12:21;;;;;;;2.13;1.10;;;;;;;;;;6307199;22;20172;-85
2023/08/21 11:14:50;;;;;;;0.30;0.30;;;;;;;;;;6306944;22;20176;-85
2023/08/21 11:17:19;;;;;;;0.77;0.77;;;;;;;;;;6307059;22;20220;-85
2023/08/21 11:19:49;;;;;;;2.13;0.73;;;;;;;;;;6307321;22;20172;-86
2023/08/21 11:22:18;;;;;;;1.83;0.87;;;;;;;;;;6307453;22;20178;-84
2023/08/21 11:24:48;;;;;;;0.60;0.60;;;;;;;;;;6306756;22;20195;-85
2023/08/21 11:27:18;;;;;;;0.73;0.70;;;;;;;;;;6306622;22;20175;-86
2023/08/21 11:29:47;;;;;;;4.00;1.57;;;;;;;;;;6307462;22;20169;-84
2023/08/21 11:32:16;;;;;;;2.03;0.90;;;;;;;;;;6306053;22;20168;-85
2023/08/21 11:34:52;;;;;;;0.70;0.70;;;;;;;;;;6306167;22;20172;-85
2023/08/21 11:37:21;;;;;;;4.10;0.97;;;;;;;;;;6306570;22;20199;-85
2023/08/21 11:39:51;;;;;;;1.60;1.50;;;;;;;;;;6306581;22;20172;-86
2023/08/21 11:42:20;;;;;;;1.87;1.03;;;;;;;;;;6306473;22;20179;-86
2023/08/21 11:44:51;;;;;;;2.53;1.40;;;;;;;;;;6306263;22;20188;-85
2023/08/21 11:47:20;;;;;;;0.60;0.60;;;;;;;;;;6307083;22;20184;-85
2023/08/21 11:49:51;;;;;;;1.80;1.40;;;;;;;;;;6306874;22;20169;-85
2023/08/21 11:52:21;;;;;;;3.73;2.07;;;;;;;;;;6306473;22;20199;-85
2023/08/21 11:54:50;;;;;;;4.13;1.37;;;;;;;;;;6306639;22;20259;-85
2023/08/21 11:57:19;;;;;;;5.50;1.37;;;;;;;;;;6307065;22;20198;-85
2023/08/21 11:59:52;;;;;;;0.80;0.80;;;;;;;;;;6306183;22;20175;-83
2023/08/21 12:02:23;;;;;;;1.73;0.77;;;;;;;;;;6306500;22;20277;-85
2023/08/21 12:04:56;;;;;;;0.40;0.40;;;;;;;;;;6306477;22;20184;-85
2023/08/21 12:07:25;;;;;;;2.03;0.97;;;;;;;;;;6306471;22;20208;-85
2023/08/21 12:09:54;;;;;;;1.03;1.03;;;;;;;;;;6306835;22;20187;-85
2023/08/21 12:12:22;;;;;;;0.83;0.70;;;;;;;;;;6306842;22;20165;-85
2023/08/21 12:14:51;;;;;;;1.73;1.63;;;;;;;;;;6306341;22;20168;-84
2023/08/21 12:17:20;;;;;;;0.30;0.30;;;;;;;;;;6306356;22;20177;-85
2023/08/21 12:19:48;;;;;;;0.43;0.43;;;;;;;;;;6306774;22;20190;-84
2023/08/21 12:22:21;;;;;;;0.97;0.70;;;;;;;;;;6306738;22;20172;-84
2023/08/21 12:24:50;;;;;;;3.83;1.60;;;;;;;;;;6306350;22;20208;-84
2023/08/21 12:27:20;;;;;;;0.63;0.50;;;;;;;;;;6306042;22;20507;-84
2023/08/21 12:29:48;;;;;;;0.83;0.77;;;;;;;;;;6306724;22;20172;-84
2023/08/21 12:32:17;;;;;;;1.03;0.60;;;;;;;;;;6306815;22;20221;-84
2023/08/21 12:34:45;;;;;;;0.30;0.30;;;;;;;;;;6305628;22;20167;-84
2023/08/21 12:37:15;;;;;;;0.40;0.40;;;;;;;;;;6305593;22;20176;-85
2023/08/21 12:39:46;;;;;;;2.63;0.90;;;;;;;;;;6306137;22;20178;-85
2023/08/21 12:42:15;;;;;;;0.77;0.50;;;;;;;;;;6306279;22;20180;-85
2023/08/21 12:44:44;;;;;;;0.40;0.40;;;;;;;;;;6305008;22;20189;-85
2023/08/21 12:47:12;;;;;;;1.10;0.40;;;;;;;;;;6306252;22;20169;-84
2023/08/21 12:49:42;;;;;;;3.00;1.50;;;;;;;;;;6305825;22;20204;-84
2023/08/21 12:52:12;;;;;;;0.83;0.60;;;;;;;;;;6305969;22;20197;-83
2023/08/21 12:54:40;;;;;;;1.90;0.83;;;;;;;;;;6305351;22;20279;-83
2023/08/21 12:57:11;;;;;;;0.60;0.60;;;;;;;;;;6306411;22;20175;-85
2023/08/21 12:59:40;;;;;;;0.40;0.40;;;;;;;;;;6306382;22;20199;-85
2023/08/21 13:02:09;;;;;;;0.73;0.67;;;;;;;;;;6305750;22;20175;-84
2023/08/21 13:04:37;;;;;;;0.40;0.40;;;;;;;;;;6305473;22;20187;-85
2023/08/21 13:07:06;;;;;;;2.30;0.93;;;;;;;;;;6306083;22;20228;-84
2023/08/21 13:09:35;;;;;;;4.70;1.00;;;;;;;;;;6305116;22;20171;-85
2023/08/21 13:12:04;;;;;;;3.50;1.30;;;;;;;;;;6305646;22;20181;-84
2023/08/21 13:14:34;;;;;;;1.13;0.63;;;;;;;;;;6306440;22;20168;-84
2023/08/21 13:17:02;;;;;;;1.50;0.90;;;;;;;;;;6306127;22;20176;-84
2023/08/21 13:19:31;;;;;;;0.93;0.90;;;;;;;;;;6304545;22;20172;-84
2023/08/21 13:22:00;;;;;;;0.70;0.70;;;;;;;;;;6305859;22;20167;-85
2023/08/21 13:24:30;;;;;;;2.67;0.80;;;;;;;;;;6305452;22;20224;-85
2023/08/21 13:26:58;;;;;;;1.00;0.90;;;;;;;;;;6306600;22;20176;-84
2023/08/21 13:29:27;;;;;;;1.87;0.83;;;;;;;;;;6305401;22;20165;-84
2023/08/21 13:31:57;;;;;;;0.90;0.90;;;;;;;;;;6306125;22;20235;-84
2023/08/21 13:34:26;;;;;;;1.20;0.83;;;;;;;;;;6305339;22;20168;-84
2023/08/21 13:36:54;;;;;;;2.80;0.90;;;;;;;;;;6305077;22;20197;-85
2023/08/21 13:39:23;;;;;;;2.70;2.10;;;;;;;;;;6302262;22;20207;-85
2023/08/21 13:41:52;;;;;;;1.63;0.80;;;;;;;;;;6305973;22;20268;-85
2023/08/21 13:44:20;;;;;;;1.10;0.87;;;;;;;;;;6306224;22;20196;-84
2023/08/21 13:46:49;;;;;;;0.90;0.90;;;;;;;;;;6305165;22;20509;-84
2023/08/21 13:49:19;;;;;;;0.90;0.90;;;;;;;;;;6305460;22;20182;-84
2023/08/21 13:51:47;;;;;;;0.70;0.70;;;;;;;;;;6305631;22;20189;-85
2023/08/21 13:54:18;;;;;;;0.50;0.50;;;;;;;;;;6305548;22;20173;-85
2023/08/21 13:56:47;;;;;;;1.37;1.27;;;;;;;;;;6305710;22;20178;-84
2023/08/21 13:59:19;;;;;;;8.27;1.83;;;;;;;;;;6306383;22;20172;-84
2023/08/21 14:01:48;;;;;;;1.70;0.77;;;;;;;;;;6305987;22;20262;-85
2023/08/21 14:04:16;;;;;;;0.83;0.43;;;;;;;;;;6305029;22;20172;-84
2023/08/21 14:06:46;;;;;;;3.60;1.10;;;;;;;;;;6305994;22;20177;-84
2023/08/21 14:09:15;;;;;;;1.60;1.47;;;;;;;;;;6306360;22;20176;-84
2023/08/21 14:11:44;;;;;;;1.67;0.83;;;;;;;;;;6305877;22;20176;-84
2023/08/21 14:14:12;;;;;;;2.93;1.13;;;;;;;;;;6305938;22;20189;-84
2023/08/21 14:16:41;;;;;;;6.30;1.00;;;;;;;;;;6305115;22;20172;-85
2023/08/21 14:19:10;;;;;;;3.43;0.90;;;;;;;;;;6306191;22;20203;-84
2023/08/21 14:21:38;;;;;;;1.10;0.50;;;;;;;;;;6304705;22;20260;-84
2023/08/21 14:24:08;;;;;;;0.70;0.70;;;;;;;;;;6306404;22;20169;-85
2023/08/21 14:26:37;;;;;;;2.80;0.77;;;;;;;;;;6305768;22;20197;-85
2023/08/21 14:29:06;;;;;;;2.23;0.60;;;;;;;;;;6306062;22;20172;-85
2023/08/21 14:31:35;;;;;;;1.20;0.50;;;;;;;;;;6307742;22;20165;-85
2023/08/21 14:34:03;;;;;;;0.70;0.70;;;;;;;;;;6308297;22;20180;-85
2023/08/21 14:36:32;;;;;;;1.50;1.23;;;;;;;;;;6308448;22;20203;-84
2023/08/21 14:39:02;;;;;;;2.33;1.47;;;;;;;;;;6307712;22;20203;-85
2023/08/21 14:41:32;;;;;;;1.83;1.43;;;;;;;;;;6307763;22;20178;-86
2023/08/21 14:44:01;;;;;;;0.53;0.53;;;;;;;;;;6307731;22;20193;-85
2023/08/21 14:46:30;;;;;;;0.63;0.63;;;;;;;;;;6307703;22;20196;-85
2023/08/21 14:49:10;;;;;;;0.57;0.57;;;;;;;;;;6307217;22;20176;-86
2023/08/21 14:51:39;;;;;;;0.90;0.90;;;;;;;;;;6307836;22;20200;-85
2023/08/21 14:54:08;;;;;;;1.00;1.00;;;;;;;;;;6308069;22;20197;-85
2023/08/21 14:56:39;;;;;;;3.00;1.23;;;;;;;;;;6307135;22;20171;-86